Perseverance — WDD5594 — position and weather

sailwx.info

Track history (hours):
 
Tides and Currents Weather Stations Pressure Air Temp Water Temp Dewpoint Dewpoint Depression Visibility Wind Speed Wind Dir Waves Ship Positions

Perseverance

More information available from US FCC via Universal Licensing System and Coast Guard Vessel Documentation Center.

Last reported at 2014-Aug-20 13:08 UTC. Time now 2014-Sep-02 21:17 UTC.
Position N 46°11' W 123°52'.
Warning: this ship's position is 13 days out of date.

Type: Fishing. MMSI: 367618000.

Date/timePositionNaut miles runAvg speedWind from/ knotsBaromVisibWave heightAir tempDewpointWater temp
2014-Aug-20 13:08N 46°11' W 123°52'0 0.0
2014-Aug-20 12:34N 46°11' W 123°52'0 0.0
2014-Aug-20 11:34N 46°11' W 123°52'0 0.0
2014-Aug-20 10:34N 46°11' W 123°52'0 0.0
2014-Aug-20 09:34N 46°11' W 123°52'4 4.3
2014-Aug-20 08:34N 46°13' W 123°57'5 4.8
2014-Aug-20 07:34N 46°15' W 124°04'7 6.5
2014-Aug-20 06:33N 46°09' W 124°07'9 8.8
2014-Aug-20 05:32N 45°60' W 124°07'48 2.4
2014-Aug-19 09:22N 45°12' W 124°15'14 7.7
2014-Aug-19 07:33N 45°26' W 124°13'7 7.6
2014-Aug-19 06:33N 45°33' W 124°12'8 7.7
2014-Aug-19 05:30N 45°41' W 124°10'7 7.7
2014-Aug-19 04:32N 45°49' W 124°09'7 7.5
2014-Aug-19 03:33N 45°56' W 124°09'7 7.2
2014-Aug-19 02:33N 46°03' W 124°08'7 6.9
2014-Aug-19 01:34N 46°10' W 124°07'7 6.8
2014-Aug-19 00:34N 46°15' W 124°01'7 7.2
2014-Aug-18 23:34N 46°11' W 123°52'0 0.0
2014-Aug-18 22:34N 46°11' W 123°52'0 0.0
2014-Aug-18 21:34N 46°11' W 123°52'0 0.0
2014-Aug-18 20:34N 46°11' W 123°52'0 0.0
2014-Aug-18 19:34N 46°11' W 123°52'0 0.0
2014-Aug-18 18:34N 46°11' W 123°52'0 0.0
2014-Aug-18 17:34N 46°11' W 123°52'0 0.0
2014-Aug-18 16:34N 46°11' W 123°52'0 0.0
2014-Aug-18 15:34N 46°11' W 123°52'1 1.2
2014-Aug-18 14:33N 46°11' W 123°54'9 8.7
2014-Aug-18 13:34N 46°14' W 124°05'8 8.2
2014-Aug-18 12:34N 46°06' W 124°06'8 8.3
2014-Aug-18 11:33N 45°58' W 124°07'8 8.3
2014-Aug-18 10:34N 45°50' W 124°07'9 7.9
2014-Aug-18 09:29N 45°41' W 124°07'7 8.1
2014-Aug-18 08:34N 45°34' W 124°07'8 8.1
2014-Aug-18 07:33N 45°25' W 124°08'17 7.9
2014-Aug-18 05:27N 45°09' W 124°08'35 2.5
2014-Aug-17 15:17N 45°44' W 124°11'710.3
2014-Aug-17 14:34N 45°51' W 124°10'1010.4
2014-Aug-17 13:34N 46°01' W 124°09'1010.4
2014-Aug-17 12:34N 46°11' W 124°07'7 6.5
2014-Aug-17 11:34N 46°13' W 123°58'4 4.4
2014-Aug-17 10:34N 46°11' W 123°52'0 0.0
2014-Aug-17 09:34N 46°11' W 123°52'0 0.0
2014-Aug-17 08:34N 46°11' W 123°52'0 0.0
2014-Aug-17 07:34N 46°11' W 123°52'0 0.0
2014-Aug-17 06:34N 46°11' W 123°52'0 0.0
2014-Aug-17 05:34N 46°11' W 123°52'3 3.4
2014-Aug-17 04:34N 46°13' W 123°56'6 5.6
2014-Aug-17 03:34N 46°15' W 124°04'7 7.3
2014-Aug-17 02:33N 46°08' W 124°08'9 8.7
2014-Aug-17 01:31N 45°59' W 124°10'12 0.4
2014-Aug-15 18:32N 46°11' W 124°11'9 9.1
2014-Aug-15 17:34N 46°14' W 123°59'5 5.4
2014-Aug-15 16:34N 46°11' W 123°52'1 1.1
2014-Aug-15 15:34N 46°12' W 123°50'1 1.1
2014-Aug-15 14:34N 46°11' W 123°52'0 0.0
2014-Aug-15 13:34N 46°11' W 123°52'0 0.0
2014-Aug-15 12:33N 46°11' W 123°52'0 0.0
2014-Aug-15 11:33N 46°11' W 123°52'0 0.0
2014-Aug-15 10:34N 46°11' W 123°52'0 0.0
2014-Aug-15 09:33N 46°11' W 123°52'0 0.0
2014-Aug-15 08:33N 46°11' W 123°52'3 3.3
2014-Aug-15 07:34N 46°12' W 123°56'7 6.8
2014-Aug-15 06:34N 46°14' W 124°06'8 7.6
2014-Aug-15 05:34N 46°07' W 124°08'8 7.9
2014-Aug-15 04:34N 45°59' W 124°12'38 7.5
2014-Aug-14 23:32N 45°23' W 124°23'1 0.1
2014-Aug-14 06:33N 45°23' W 124°24'8 8.0
2014-Aug-14 05:31N 45°32' W 124°23'8 8.3
2014-Aug-14 04:33N 45°40' W 124°22'8 7.7
2014-Aug-14 03:33N 45°47' W 124°20'9 8.9
2014-Aug-14 02:33N 45°56' W 124°18'9 8.9
2014-Aug-14 01:33N 46°04' W 124°12'8 8.3
2014-Aug-14 00:34N 46°11' W 124°06'6 6.2
2014-Aug-13 23:34N 46°14' W 123°58'5 5.2
2014-Aug-13 22:34N 46°11' W 123°52'0 0.0
2014-Aug-13 21:33N 46°11' W 123°52'0 0.0
2014-Aug-13 20:33N 46°11' W 123°52'0 0.0
2014-Aug-13 19:34N 46°11' W 123°52'0 0.0
2014-Aug-13 18:34N 46°11' W 123°52'0 0.0
2014-Aug-13 17:34N 46°11' W 123°52'0 0.0
2014-Aug-13 16:34N 46°11' W 123°52'0 0.0
2014-Aug-13 15:34N 46°11' W 123°52'0 0.0
2014-Aug-13 14:34N 46°11' W 123°52'0 0.0
2014-Aug-13 13:34N 46°11' W 123°52'0 0.0
2014-Aug-13 12:34N 46°11' W 123°52'0 0.0
2014-Aug-13 11:34N 46°11' W 123°52'0 0.0
2014-Aug-13 10:33N 46°11' W 123°52'0 0.0
2014-Aug-13 09:34N 46°11' W 123°52'0 0.0
2014-Aug-13 08:34N 46°11' W 123°52'0 0.0
2014-Aug-13 07:34N 46°11' W 123°52'6 6.2
2014-Aug-13 06:34N 46°14' W 123°60'7 6.6
2014-Aug-13 05:34N 46°10' W 124°06'9 9.0
2014-Aug-13 04:33N 46°01' W 124°08'9 9.0
2014-Aug-13 03:33N 45°52' W 124°10'9 9.2
2014-Aug-13 02:33N 45°43' W 124°13'9 9.3
2014-Aug-13 01:33N 45°34' W 124°15'11 1.2
2014-Aug-12 16:27N 45°23' W 124°19'910.4
2014-Aug-12 15:33N 45°32' W 124°17'1010.3
2014-Aug-12 14:33N 45°42' W 124°16'1110.0
2014-Aug-12 13:29N 45°53' W 124°13'1010.1
2014-Aug-12 12:32N 46°02' W 124°10'10 9.9
2014-Aug-12 11:34N 46°11' W 124°07'8 7.8
2014-Aug-12 10:34N 46°12' W 123°56'3 2.7
2014-Aug-12 09:34N 46°11' W 123°52'0 0.0
2014-Aug-12 08:33N 46°11' W 123°52'0 0.0
2014-Aug-12 07:34N 46°11' W 123°52'0 0.0
2014-Aug-12 06:34N 46°11' W 123°52'0 0.5
2014-Aug-12 05:34N 46°11' W 123°53'9 8.6
2014-Aug-12 04:34N 46°15' W 124°04'8 8.2
2014-Aug-12 03:32N 46°07' W 124°07'9 8.7
2014-Aug-12 02:33N 45°59' W 124°10'10 9.0
2014-Aug-12 01:29N 45°50' W 124°14'11 8.8
2014-Aug-12 00:13N 45°39' W 124°18'8 4.3
2014-Aug-11 22:21N 45°31' W 124°19'45 4.4
2014-Aug-11 12:08N 44°47' W 124°32'66 9.8
2014-Aug-11 05:24N 45°52' W 124°13'8 9.3
2014-Aug-11 04:33N 45°59' W 124°11'10 9.9
2014-Aug-11 03:33N 46°09' W 124°08'8 7.8
2014-Aug-11 02:34N 46°14' W 123°60'7 7.1
2014-Aug-11 01:33N 46°12' W 123°50'1 1.1
2014-Aug-11 00:33N 46°11' W 123°52'0 0.0
2014-Aug-10 23:34N 46°11' W 123°52'0 0.0
2014-Aug-10 22:33N 46°11' W 123°52'0 0.0
2014-Aug-10 21:34N 46°11' W 123°52'0 0.0
2014-Aug-10 20:33N 46°11' W 123°52'0 0.0
2014-Aug-10 19:34N 46°11' W 123°52'0 0.0
2014-Aug-10 18:34N 46°11' W 123°52'0 0.0
2014-Aug-10 17:34N 46°11' W 123°52'0 0.0
2014-Aug-10 16:34N 46°11' W 123°52'0 0.0
2014-Aug-10 15:34N 46°11' W 123°52'0 0.0
2014-Aug-10 14:33N 46°11' W 123°52'1 0.6
2014-Aug-10 13:34N 46°11' W 123°53'  
Track history (hours):
 
Tides and Currents Weather Stations Pressure Air Temp Water Temp Dewpoint Dewpoint Depression Visibility Wind Speed Wind Dir Waves Ship Positions

Perseverance

More information available from US FCC via Universal Licensing System and Coast Guard Vessel Documentation Center.

Last reported at 2014-Aug-20 13:08 UTC. Time now 2014-Sep-02 21:17 UTC.
Position N 46°11' W 123°52'.
Warning: this ship's position is 13 days out of date.

Type: Fishing. MMSI: 367618000.

Date/timePositionNaut miles runAvg speedWind from/ knotsBaromVisibWave heightAir tempDewpointWater temp
2014-Aug-20 13:08N 46°11' W 123°52'0 0.0
2014-Aug-20 12:34N 46°11' W 123°52'0 0.0
2014-Aug-20 11:34N 46°11' W 123°52'0 0.0
2014-Aug-20 10:34N 46°11' W 123°52'0 0.0
2014-Aug-20 09:34N 46°11' W 123°52'4 4.3
2014-Aug-20 08:34N 46°13' W 123°57'5 4.8
2014-Aug-20 07:34N 46°15' W 124°04'7 6.5
2014-Aug-20 06:33N 46°09' W 124°07'9 8.8
2014-Aug-20 05:32N 45°60' W 124°07'48 2.4
2014-Aug-19 09:22N 45°12' W 124°15'14 7.7
2014-Aug-19 07:33N 45°26' W 124°13'7 7.6
2014-Aug-19 06:33N 45°33' W 124°12'8 7.7
2014-Aug-19 05:30N 45°41' W 124°10'7 7.7
2014-Aug-19 04:32N 45°49' W 124°09'7 7.5
2014-Aug-19 03:33N 45°56' W 124°09'7 7.2
2014-Aug-19 02:33N 46°03' W 124°08'7 6.9
2014-Aug-19 01:34N 46°10' W 124°07'7 6.8
2014-Aug-19 00:34N 46°15' W 124°01'7 7.2
2014-Aug-18 23:34N 46°11' W 123°52'0 0.0
2014-Aug-18 22:34N 46°11' W 123°52'0 0.0
2014-Aug-18 21:34N 46°11' W 123°52'0 0.0
2014-Aug-18 20:34N 46°11' W 123°52'0 0.0
2014-Aug-18 19:34N 46°11' W 123°52'0 0.0
2014-Aug-18 18:34N 46°11' W 123°52'0 0.0
2014-Aug-18 17:34N 46°11' W 123°52'0 0.0
2014-Aug-18 16:34N 46°11' W 123°52'0 0.0
2014-Aug-18 15:34N 46°11' W 123°52'1 1.2
2014-Aug-18 14:33N 46°11' W 123°54'9 8.7
2014-Aug-18 13:34N 46°14' W 124°05'8 8.2
2014-Aug-18 12:34N 46°06' W 124°06'8 8.3
2014-Aug-18 11:33N 45°58' W 124°07'8 8.3
2014-Aug-18 10:34N 45°50' W 124°07'9 7.9
2014-Aug-18 09:29N 45°41' W 124°07'7 8.1
2014-Aug-18 08:34N 45°34' W 124°07'8 8.1
2014-Aug-18 07:33N 45°25' W 124°08'17 7.9
2014-Aug-18 05:27N 45°09' W 124°08'35 2.5
2014-Aug-17 15:17N 45°44' W 124°11'710.3
2014-Aug-17 14:34N 45°51' W 124°10'1010.4
2014-Aug-17 13:34N 46°01' W 124°09'1010.4
2014-Aug-17 12:34N 46°11' W 124°07'7 6.5
2014-Aug-17 11:34N 46°13' W 123°58'4 4.4
2014-Aug-17 10:34N 46°11' W 123°52'0 0.0
2014-Aug-17 09:34N 46°11' W 123°52'0 0.0
2014-Aug-17 08:34N 46°11' W 123°52'0 0.0
2014-Aug-17 07:34N 46°11' W 123°52'0 0.0
2014-Aug-17 06:34N 46°11' W 123°52'0 0.0
2014-Aug-17 05:34N 46°11' W 123°52'3 3.4
2014-Aug-17 04:34N 46°13' W 123°56'6 5.6
2014-Aug-17 03:34N 46°15' W 124°04'7 7.3
2014-Aug-17 02:33N 46°08' W 124°08'9 8.7
2014-Aug-17 01:31N 45°59' W 124°10'12 0.4
2014-Aug-15 18:32N 46°11' W 124°11'9 9.1
2014-Aug-15 17:34N 46°14' W 123°59'5 5.4
2014-Aug-15 16:34N 46°11' W 123°52'1 1.1
2014-Aug-15 15:34N 46°12' W 123°50'1 1.1
2014-Aug-15 14:34N 46°11' W 123°52'0 0.0
2014-Aug-15 13:34N 46°11' W 123°52'0 0.0
2014-Aug-15 12:33N 46°11' W 123°52'0 0.0
2014-Aug-15 11:33N 46°11' W 123°52'0 0.0
2014-Aug-15 10:34N 46°11' W 123°52'0 0.0
2014-Aug-15 09:33N 46°11' W 123°52'0 0.0
2014-Aug-15 08:33N 46°11' W 123°52'3 3.3
2014-Aug-15 07:34N 46°12' W 123°56'7 6.8
2014-Aug-15 06:34N 46°14' W 124°06'8 7.6
2014-Aug-15 05:34N 46°07' W 124°08'8 7.9
2014-Aug-15 04:34N 45°59' W 124°12'38 7.5
2014-Aug-14 23:32N 45°23' W 124°23'1 0.1
2014-Aug-14 06:33N 45°23' W 124°24'8 8.0
2014-Aug-14 05:31N 45°32' W 124°23'8 8.3
2014-Aug-14 04:33N 45°40' W 124°22'8 7.7
2014-Aug-14 03:33N 45°47' W 124°20'9 8.9
2014-Aug-14 02:33N 45°56' W 124°18'9 8.9
2014-Aug-14 01:33N 46°04' W 124°12'8 8.3
2014-Aug-14 00:34N 46°11' W 124°06'6 6.2
2014-Aug-13 23:34N 46°14' W 123°58'5 5.2
2014-Aug-13 22:34N 46°11' W 123°52'0 0.0
2014-Aug-13 21:33N 46°11' W 123°52'0 0.0
2014-Aug-13 20:33N 46°11' W 123°52'0 0.0
2014-Aug-13 19:34N 46°11' W 123°52'0 0.0
2014-Aug-13 18:34N 46°11' W 123°52'0 0.0
2014-Aug-13 17:34N 46°11' W 123°52'0 0.0
2014-Aug-13 16:34N 46°11' W 123°52'0 0.0
2014-Aug-13 15:34N 46°11' W 123°52'0 0.0
2014-Aug-13 14:34N 46°11' W 123°52'0 0.0
2014-Aug-13 13:34N 46°11' W 123°52'0 0.0
2014-Aug-13 12:34N 46°11' W 123°52'0 0.0
2014-Aug-13 11:34N 46°11' W 123°52'0 0.0
2014-Aug-13 10:33N 46°11' W 123°52'0 0.0
2014-Aug-13 09:34N 46°11' W 123°52'0 0.0
2014-Aug-13 08:34N 46°11' W 123°52'0 0.0
2014-Aug-13 07:34N 46°11' W 123°52'6 6.2
2014-Aug-13 06:34N 46°14' W 123°60'7 6.6
2014-Aug-13 05:34N 46°10' W 124°06'9 9.0
2014-Aug-13 04:33N 46°01' W 124°08'9 9.0
2014-Aug-13 03:33N 45°52' W 124°10'9 9.2
2014-Aug-13 02:33N 45°43' W 124°13'9 9.3
2014-Aug-13 01:33N 45°34' W 124°15'11 1.2
2014-Aug-12 16:27N 45°23' W 124°19'910.4
2014-Aug-12 15:33N 45°32' W 124°17'1010.3
2014-Aug-12 14:33N 45°42' W 124°16'1110.0
2014-Aug-12 13:29N 45°53' W 124°13'1010.1
2014-Aug-12 12:32N 46°02' W 124°10'10 9.9
2014-Aug-12 11:34N 46°11' W 124°07'8 7.8
2014-Aug-12 10:34N 46°12' W 123°56'3 2.7
2014-Aug-12 09:34N 46°11' W 123°52'0 0.0
2014-Aug-12 08:33N 46°11' W 123°52'0 0.0
2014-Aug-12 07:34N 46°11' W 123°52'0 0.0
2014-Aug-12 06:34N 46°11' W 123°52'0 0.5
2014-Aug-12 05:34N 46°11' W 123°53'9 8.6
2014-Aug-12 04:34N 46°15' W 124°04'8 8.2
2014-Aug-12 03:32N 46°07' W 124°07'9 8.7
2014-Aug-12 02:33N 45°59' W 124°10'10 9.0
2014-Aug-12 01:29N 45°50' W 124°14'11 8.8
2014-Aug-12 00:13N 45°39' W 124°18'8 4.3
2014-Aug-11 22:21N 45°31' W 124°19'45 4.4
2014-Aug-11 12:08N 44°47' W 124°32'66 9.8
2014-Aug-11 05:24N 45°52' W 124°13'8 9.3
2014-Aug-11 04:33N 45°59' W 124°11'10 9.9
2014-Aug-11 03:33N 46°09' W 124°08'8 7.8
2014-Aug-11 02:34N 46°14' W 123°60'7 7.1
2014-Aug-11 01:33N 46°12' W 123°50'1 1.1
2014-Aug-11 00:33N 46°11' W 123°52'0 0.0
2014-Aug-10 23:34N 46°11' W 123°52'0 0.0
2014-Aug-10 22:33N 46°11' W 123°52'0 0.0
2014-Aug-10 21:34N 46°11' W 123°52'0 0.0
2014-Aug-10 20:33N 46°11' W 123°52'0 0.0
2014-Aug-10 19:34N 46°11' W 123°52'0 0.0
2014-Aug-10 18:34N 46°11' W 123°52'0 0.0
2014-Aug-10 17:34N 46°11' W 123°52'0 0.0
2014-Aug-10 16:34N 46°11' W 123°52'0 0.0
2014-Aug-10 15:34N 46°11' W 123°52'0 0.0
2014-Aug-10 14:33N 46°11' W 123°52'1 0.6
2014-Aug-10 13:34N 46°11' W 123°53'  

Dump ship's entire track history